createdAt,value
2018-06-30T00:04:36.198Z,1.55
2018-06-30T00:09:39.021Z,1.47
2018-06-30T00:14:41.856Z,1.65
2018-06-30T00:19:47.737Z,1.55
2018-06-30T00:24:51.421Z,1.57
2018-06-30T00:29:54.429Z,1.70
2018-06-30T00:34:57.248Z,1.20
2018-06-30T00:39:59.990Z,1.30
2018-06-30T00:45:06.639Z,1.32
2018-06-30T00:50:09.454Z,1.50
2018-06-30T00:55:12.133Z,1.07
2018-06-30T01:00:16.411Z,1.63
2018-06-30T01:05:19.169Z,1.22
2018-06-30T01:10:21.948Z,1.27
2018-06-30T01:15:24.755Z,1.35
2018-06-30T01:20:27.415Z,0.93
2018-06-30T01:25:30.184Z,1.07
2018-06-30T01:30:33.011Z,1.27
2018-06-30T01:35:35.858Z,1.10
2018-06-30T01:40:39.338Z,1.30
2018-06-30T01:45:42.203Z,1.50
2018-06-30T01:50:44.945Z,1.10
2018-06-30T01:55:47.918Z,1.55
2018-06-30T02:00:51.969Z,0.90
2018-06-30T02:05:54.796Z,1.10
2018-06-30T02:10:59.513Z,1.00
2018-06-30T02:16:02.311Z,0.90
2018-06-30T02:21:05.205Z,0.98
2018-06-30T02:26:08.209Z,2.25
2018-06-30T02:31:10.968Z,1.00
2018-06-30T02:36:14.026Z,1.22
2018-06-30T02:41:16.741Z,0.90
2018-06-30T02:46:19.592Z,1.00
2018-06-30T02:51:22.778Z,1.00
2018-06-30T02:56:25.449Z,1.00
2018-06-30T03:01:28.022Z,0.88
2018-06-30T03:06:32.897Z,1.10
2018-06-30T03:11:35.678Z,0.90
2018-06-30T03:16:38.553Z,0.98
2018-06-30T03:21:41.432Z,0.90
2018-06-30T03:26:44.300Z,1.00
2018-06-30T03:31:47.189Z,0.85
2018-06-30T03:36:49.898Z,0.95
2018-06-30T03:41:52.596Z,0.82
2018-06-30T03:46:55.415Z,1.12
2018-06-30T03:51:59.666Z,0.90
2018-06-30T03:57:02.897Z,0.68
2018-06-30T04:02:05.558Z,0.80
2018-06-30T04:07:08.214Z,0.80
2018-06-30T04:12:11.898Z,0.80
2018-06-30T04:17:14.776Z,0.90
2018-06-30T04:22:17.677Z,0.65
2018-06-30T04:27:20.490Z,0.75
2018-06-30T04:32:23.204Z,1.02
2018-06-30T04:37:25.985Z,0.72
2018-06-30T04:42:28.913Z,0.60
2018-06-30T04:47:31.645Z,0.70
2018-06-30T04:52:34.301Z,0.80
2018-06-30T04:57:37.133Z,0.80
2018-06-30T05:02:39.844Z,0.70
2018-06-30T05:07:42.543Z,0.60
2018-06-30T05:12:45.466Z,0.80
2018-06-30T05:17:48.399Z,0.98
2018-06-30T05:22:52.050Z,0.60
2018-06-30T05:27:54.894Z,1.10
2018-06-30T05:32:57.659Z,0.80
2018-06-30T05:38:00.913Z,0.70
2018-06-30T05:43:05.072Z,0.90
2018-06-30T05:48:07.977Z,0.70
2018-06-30T05:53:10.926Z,0.80
2018-06-30T05:58:15.380Z,0.60
2018-06-30T06:03:18.054Z,0.60
2018-06-30T06:08:20.748Z,0.45
2018-06-30T06:13:24.209Z,0.80
2018-06-30T06:18:28.076Z,0.60
2018-06-30T06:23:30.909Z,0.50
2018-06-30T06:28:33.644Z,0.60
2018-06-30T06:33:37.266Z,0.53
2018-06-30T06:38:40.123Z,0.60
2018-06-30T06:43:44.336Z,0.50
2018-06-30T06:48:47.143Z,0.60
2018-06-30T06:53:49.939Z,0.80
2018-06-30T06:58:53.133Z,0.50
2018-06-30T07:03:56.260Z,0.80
2018-06-30T07:08:59.988Z,0.40
2018-06-30T07:14:02.706Z,0.40
2018-06-30T07:19:08.575Z,0.30
2018-06-30T07:24:11.432Z,0.30
2018-06-30T07:29:14.192Z,0.50
2018-06-30T07:34:16.802Z,0.80
2018-06-30T07:39:20.248Z,0.62
2018-06-30T07:44:22.977Z,1.00
2018-06-30T07:49:25.711Z,0.40
2018-06-30T07:54:28.500Z,0.90
2018-06-30T07:59:31.258Z,0.40
2018-06-30T08:04:34.010Z,0.30
2018-06-30T08:09:37.093Z,1.10
2018-06-30T08:14:39.865Z,1.00
2018-06-30T08:19:42.657Z,0.40
2018-06-30T08:24:45.336Z,1.10
2018-06-30T08:29:49.328Z,0.30
2018-06-30T08:34:52.201Z,0.40
2018-06-30T08:39:54.952Z,0.30
2018-06-30T08:44:57.520Z,0.33
2018-06-30T08:50:02.969Z,0.40
2018-06-30T08:55:06.111Z,0.40
2018-06-30T09:00:08.858Z,0.30
2018-06-30T09:05:11.559Z,0.30
2018-06-30T09:10:14.277Z,0.30
2018-06-30T09:15:17.174Z,0.30
2018-06-30T09:20:19.794Z,0.50
2018-06-30T09:25:22.811Z,0.40
2018-06-30T09:30:25.461Z,0.30
2018-06-30T09:35:28.187Z,0.53
2018-06-30T09:40:30.860Z,0.70
2018-06-30T09:45:33.534Z,0.40
2018-06-30T09:50:36.140Z,0.33
2018-06-30T09:55:38.789Z,0.20
2018-06-30T10:00:46.690Z,0.35
2018-06-30T10:05:49.446Z,0.20
2018-06-30T10:10:52.103Z,0.30
2018-06-30T10:15:54.788Z,0.50
2018-06-30T10:20:57.512Z,0.33
2018-06-30T10:26:00.049Z,0.20
2018-06-30T10:31:02.733Z,0.50
2018-06-30T10:36:05.784Z,0.40
2018-06-30T10:41:08.540Z,0.40
2018-06-30T10:46:11.332Z,0.30
2018-06-30T10:51:14.029Z,0.75
2018-06-30T10:56:16.721Z,0.40
2018-06-30T11:01:19.615Z,0.30
2018-06-30T11:06:22.465Z,0.35
2018-06-30T11:11:25.289Z,0.40
2018-06-30T11:16:28.197Z,0.30
2018-06-30T11:21:30.836Z,0.20
2018-06-30T11:26:33.962Z,0.33
2018-06-30T11:31:37.570Z,0.30
2018-06-30T11:36:40.217Z,0.35
2018-06-30T11:41:43.805Z,0.35
2018-06-30T11:46:46.528Z,0.40
2018-06-30T11:51:49.174Z,0.40
2018-06-30T11:56:51.842Z,0.30
2018-06-30T12:01:54.631Z,0.30
2018-06-30T12:06:57.364Z,0.30
2018-06-30T12:12:00.161Z,1.05
2018-06-30T12:17:02.720Z,0.30
2018-06-30T12:22:05.758Z,0.30
2018-06-30T12:27:08.471Z,0.30
2018-06-30T12:32:11.096Z,0.40
2018-06-30T12:37:13.883Z,0.30
2018-06-30T12:42:16.527Z,0.30
2018-06-30T12:47:23.905Z,0.30
2018-06-30T12:52:26.813Z,0.40
2018-06-30T12:57:29.470Z,0.30
2018-06-30T13:02:32.230Z,0.33
2018-06-30T13:07:35.024Z,0.30
2018-06-30T13:12:38.028Z,0.30
2018-06-30T13:17:41.749Z,0.30
2018-06-30T13:22:44.322Z,0.40
2018-06-30T13:27:47.275Z,1.02
2018-06-30T13:32:49.851Z,0.35
2018-06-30T13:37:52.477Z,0.40
2018-06-30T13:42:54.957Z,0.60
2018-06-30T13:47:57.777Z,0.30
2018-06-30T13:53:00.376Z,0.62
2018-06-30T13:58:03.991Z,0.25
2018-06-30T14:03:06.545Z,0.35
2018-06-30T14:08:09.762Z,0.30
2018-06-30T14:13:12.185Z,0.30
2018-06-30T14:18:14.830Z,0.60
2018-06-30T14:23:18.317Z,0.60
2018-06-30T14:28:20.686Z,0.45
2018-06-30T14:33:23.151Z,0.85
2018-06-30T14:38:25.611Z,0.40
2018-06-30T14:43:28.278Z,0.60
2018-06-30T14:48:30.895Z,0.40
2018-06-30T14:53:34.259Z,0.45
2018-06-30T14:58:37.404Z,0.40
2018-06-30T15:03:39.881Z,0.30
2018-06-30T15:08:42.321Z,0.40
2018-06-30T15:13:44.764Z,0.35
2018-06-30T15:18:47.210Z,0.50
2018-06-30T15:23:49.668Z,0.40
2018-06-30T15:28:52.385Z,0.30
2018-06-30T15:33:54.891Z,0.30
2018-06-30T15:38:57.320Z,0.50
2018-06-30T15:43:59.682Z,0.62
2018-06-30T15:49:03.144Z,0.40
2018-06-30T15:54:05.641Z,0.30
2018-06-30T15:59:09.365Z,0.30
2018-06-30T16:04:11.743Z,0.40
2018-06-30T16:09:14.881Z,0.37
2018-06-30T16:14:17.588Z,0.47
2018-06-30T16:19:20.006Z,0.30
2018-06-30T16:24:22.543Z,0.60
2018-06-30T16:29:24.974Z,0.57
2018-06-30T16:34:27.447Z,0.80
2018-06-30T16:39:29.994Z,0.50
2018-06-30T16:44:33.089Z,0.40
2018-06-30T16:49:35.612Z,0.60
2018-06-30T16:54:38.281Z,0.50
2018-06-30T16:59:41.437Z,0.50
2018-06-30T17:04:44.679Z,0.50
2018-06-30T17:09:47.927Z,0.45
2018-06-30T17:14:51.054Z,0.40
2018-06-30T17:19:53.926Z,0.47
2018-06-30T17:24:56.564Z,0.47
2018-06-30T17:29:59.189Z,1.90
2018-06-30T17:35:06.319Z,6.55
2018-06-30T17:40:08.779Z,0.60
2018-06-30T17:45:11.283Z,0.50
2018-06-30T17:50:13.979Z,0.57
2018-06-30T17:55:16.400Z,0.53
2018-06-30T18:00:18.901Z,1.10
2018-06-30T18:05:21.379Z,0.40
2018-06-30T18:10:24.257Z,0.75
2018-06-30T18:15:26.715Z,0.50
2018-06-30T18:20:29.472Z,0.50
2018-06-30T18:25:32.196Z,0.60
2018-06-30T18:30:34.927Z,0.40
2018-06-30T18:35:37.804Z,0.50
2018-06-30T18:40:40.700Z,0.40
2018-06-30T18:45:43.075Z,0.50
2018-06-30T18:50:45.465Z,0.50
2018-06-30T18:55:47.889Z,1.40
2018-06-30T19:00:50.333Z,0.80
2018-06-30T19:05:53.387Z,0.60
2018-06-30T19:10:57.899Z,0.57
2018-06-30T19:16:01.687Z,0.75
2018-06-30T19:21:04.571Z,1.17
2018-06-30T19:26:09.137Z,1.50
2018-06-30T19:31:11.698Z,1.60
2018-06-30T19:36:14.328Z,1.62
2018-06-30T19:41:16.902Z,1.23
2018-06-30T19:46:19.452Z,1.00
2018-06-30T19:51:23.276Z,0.70
2018-06-30T19:56:26.061Z,0.90
2018-06-30T20:01:32.561Z,0.70
2018-06-30T20:06:40.918Z,0.72
2018-06-30T20:11:43.460Z,1.30
2018-06-30T20:16:46.140Z,1.07
2018-06-30T20:21:48.640Z,0.90
2018-06-30T20:26:53.993Z,1.20
2018-06-30T20:31:59.011Z,1.80
2018-06-30T20:37:01.938Z,1.82
2018-06-30T20:42:06.312Z,2.15
2018-06-30T20:47:09.339Z,2.00
2018-06-30T20:52:12.256Z,1.90
2018-06-30T20:57:15.370Z,2.00
2018-06-30T21:02:18.613Z,2.00
2018-06-30T21:07:21.577Z,1.80
2018-06-30T21:12:27.064Z,1.90
2018-06-30T21:17:30.974Z,2.30
2018-06-30T21:22:38.267Z,3.12
2018-06-30T21:27:43.103Z,3.72
2018-06-30T21:32:47.886Z,5.92
2018-06-30T21:37:51.771Z,6.50
2018-06-30T21:42:56.422Z,4.55
2018-06-30T21:47:59.339Z,3.10
2018-06-30T21:53:04.585Z,1.87
2018-06-30T21:58:08.696Z,1.40
2018-06-30T22:03:12.714Z,1.10
2018-06-30T22:08:16.917Z,1.00
2018-06-30T22:13:20.636Z,0.85
2018-06-30T22:18:24.182Z,0.95
2018-06-30T22:23:28.525Z,0.70
2018-06-30T22:28:32.245Z,0.70
2018-06-30T22:33:35.334Z,1.10
2018-06-30T22:38:38.423Z,0.82
2018-06-30T22:43:42.547Z,0.80
2018-06-30T22:48:46.812Z,0.98
2018-06-30T22:53:51.143Z,1.40
2018-06-30T22:58:54.622Z,1.62
2018-06-30T23:03:58.338Z,1.30
2018-06-30T23:09:02.044Z,1.35
2018-06-30T23:14:05.587Z,1.62
2018-06-30T23:19:10.493Z,1.20
2018-06-30T23:24:13.649Z,1.20
2018-06-30T23:29:18.438Z,1.05
2018-06-30T23:34:22.908Z,0.90
2018-06-30T23:39:27.225Z,1.00
2018-06-30T23:44:32.029Z,0.90
2018-06-30T23:55:33.840Z,1.00
